Time;durP1;ratioP1;P1;durP2;ratioP2;P2;SDS_P1;SDS_P2;PMS_P1;PMS_P2;Temp;Humidity;BMP_temperature;BMP_pressure;BME280_temperature;BME280_humidity;BME280_pressure;Samples;Min_cycle;Max_cycle;Signal;HPM_P1;HPM_P2
2022/09/09 00:02:02;;;;;;;29.40;19.20;;;15.20;99.90;;;;;;5073193;28;20460;-72
2022/09/09 00:04:37;;;;;;;25.77;17.73;;;15.20;99.90;;;;;;5073209;28;20466;-72
2022/09/09 00:07:24;;;;;;;30.10;18.37;;;15.30;99.90;;;;;;5072110;28;20404;-72
2022/09/09 00:10:30;;;;;;;31.77;20.87;;;15.30;99.90;;;;;;5073099;28;20516;-72
2022/09/09 00:13:05;;;;;;;26.57;17.53;;;15.30;99.90;;;;;;5073301;28;20408;-72
2022/09/09 00:15:40;;;;;;;30.10;19.33;;;15.30;99.90;;;;;;5073207;28;20432;-71
2022/09/09 00:18:21;;;;;;;27.30;19.43;;;15.40;99.90;;;;;;5072343;28;20416;-71
2022/09/09 00:21:12;;;;;;;28.80;19.20;;;15.40;99.90;;;;;;5072738;28;20826;-70
2022/09/09 00:23:52;;;;;;;30.57;19.50;;;15.40;99.90;;;;;;5072631;28;20470;-72
2022/09/09 00:26:38;;;;;;;29.00;18.97;;;15.30;99.90;;;;;;5072406;28;20400;-73
2022/09/09 00:29:16;;;;;;;31.10;20.00;;;15.30;99.90;;;;;;5073019;28;20515;-72
2022/09/09 00:31:42;;;;;;;26.97;19.20;;;15.30;99.90;;;;;;5054764;28;20511;-71
2022/09/09 00:34:16;;;;;;;27.70;19.70;;;15.20;99.90;;;;;;5072616;28;20503;-71
2022/09/09 00:36:47;;;;;;;28.87;19.17;;;15.20;99.90;;;;;;5072322;28;20189;-72
2022/09/09 00:39:37;;;;;;;30.73;19.60;;;15.30;99.90;;;;;;5072861;28;20844;-73
2022/09/09 00:42:23;;;;;;;28.00;19.60;;;15.30;99.90;;;;;;5072082;28;20456;-71
2022/09/09 00:48:57;;;;;;;32.43;21.10;;;15.30;99.90;;;;;;4971885;28;20416;-72
2022/09/09 00:51:34;;;;;;;31.47;20.83;;;15.20;99.90;;;;;;4972033;28;20453;-71
2022/09/09 00:54:15;;;;;;;28.10;19.00;;;15.20;99.90;;;;;;4971900;28;20413;-73
2022/09/09 00:56:53;;;;;;;32.13;18.47;;;15.10;99.90;;;;;;5036488;28;20432;-72
2022/09/09 00:59:40;;;;;;;26.50;19.13;;;15.10;99.90;;;;;;5072188;28;20469;-71
2022/09/09 01:02:50;;;;;;;26.53;17.87;;;15.10;99.90;;;;;;5072608;28;20456;-72
2022/09/09 01:09:00;;;;;;;27.13;17.17;;;15.10;99.90;;;;;;5072205;28;20432;-71
2022/09/09 01:11:47;;;;;;;23.77;18.03;;;15.00;99.90;;;;;;5017774;28;20507;-72
2022/09/09 01:14:34;;;;;;;31.07;19.40;;;15.00;99.90;;;;;;5072666;28;20407;-71
2022/09/09 01:17:18;;;;;;;32.90;19.67;;;15.10;99.90;;;;;;5071810;28;20487;-72
2022/09/09 01:19:44;;;;;;;29.57;20.37;;;15.10;99.90;;;;;;5072323;28;20499;-72
2022/09/09 01:22:37;;;;;;;27.47;17.93;;;15.10;99.90;;;;;;5072483;28;20858;-72
2022/09/09 01:25:41;;;;;;;30.43;19.40;;;15.20;99.90;;;;;;5072450;28;20159;-72
2022/09/09 01:28:16;;;;;;;29.53;18.37;;;15.20;99.90;;;;;;5011118;28;20451;-71
2022/09/09 01:30:42;;;;;;;26.63;16.23;;;15.10;99.90;;;;;;5072230;28;20408;-72
2022/09/09 01:33:14;;;;;;;29.93;18.10;;;15.10;99.90;;;;;;5072316;28;20893;-70
2022/09/09 01:35:57;;;;;;;31.23;18.37;;;15.20;99.90;;;;;;5072428;28;20487;-71
2022/09/09 01:38:24;;;;;;;28.00;17.83;;;15.10;99.90;;;;;;5071411;28;20427;-71
2022/09/09 01:40:52;;;;;;;25.93;16.90;;;15.10;99.90;;;;;;5072147;28;20889;-71
2022/09/09 01:43:23;;;;;;;27.43;17.93;;;15.10;99.90;;;;;;5076000;28;20462;-71
2022/09/09 01:45:53;;;;;;;25.00;17.17;;;15.10;99.90;;;;;;5075599;28;20397;-72
2022/09/09 01:48:27;;;;;;;22.03;15.83;;;15.10;99.90;;;;;;5075350;28;20433;-72
2022/09/09 01:50:53;;;;;;;29.30;17.77;;;15.10;99.90;;;;;;5075796;28;20401;-70
2022/09/09 01:56:17;;;;;;;24.53;17.00;;;15.10;99.90;;;;;;5074974;28;20841;-72
2022/09/09 02:02:17;;;;;;;23.87;16.03;;;15.10;99.90;;;;;;5013667;28;20836;-71
2022/09/09 02:04:56;;;;;;;23.47;17.87;;;15.10;99.90;;;;;;5068712;28;20420;-71
2022/09/09 02:07:31;;;;;;;21.90;16.00;;;15.10;99.90;;;;;;5074744;28;20404;-71
2022/09/09 02:10:25;;;;;;;27.27;17.77;;;15.10;99.90;;;;;;5075437;28;20546;-72
2022/09/09 02:12:57;;;;;;;25.93;16.47;;;15.20;99.90;;;;;;5066755;28;20999;-72
2022/09/09 02:15:42;;;;;;;28.37;16.77;;;15.20;99.90;;;;;;5075193;28;20416;-70
2022/09/09 02:18:19;;;;;;;30.20;17.33;;;15.20;99.90;;;;;;5056973;28;20519;-72
2022/09/09 02:20:46;;;;;;;26.60;17.50;;;15.10;99.90;;;;;;5075342;28;20400;-72
2022/09/09 02:23:14;;;;;;;33.00;16.43;;;15.10;99.90;;;;;;5074897;28;20456;-71
2022/09/09 02:25:41;;;;;;;30.17;18.13;;;15.10;99.90;;;;;;5075354;28;20480;-72
2022/09/09 02:28:10;;;;;;;24.93;15.17;;;15.10;99.90;;;;;;5074625;28;20920;-72
2022/09/09 02:30:38;;;;;;;27.50;17.27;;;15.10;99.90;;;;;;5074501;28;20454;-72
2022/09/09 02:33:10;;;;;;;27.03;16.03;;;15.10;99.90;;;;;;5074897;28;20463;-71
2022/09/09 02:35:39;;;;;;;28.17;16.90;;;15.10;99.90;;;;;;5075124;28;20404;-72
2022/09/09 02:38:12;;;;;;;26.30;15.57;;;15.10;99.90;;;;;;5074163;28;20707;-72
2022/09/09 02:40:38;;;;;;;29.33;16.93;;;15.10;99.90;;;;;;5074919;28;20483;-71
2022/09/09 02:43:04;;;;;;;27.73;18.67;;;15.10;99.90;;;;;;5074817;28;20463;-72
2022/09/09 02:46:02;;;;;;;28.73;18.23;;;15.10;99.90;;;;;;5074783;28;20455;-72
2022/09/09 02:48:38;;;;;;;38.37;17.90;;;15.10;99.90;;;;;;5018875;28;20432;-71
2022/09/09 02:51:17;;;;;;;33.03;18.93;;;15.10;99.90;;;;;;5074695;28;20404;-72
2022/09/09 02:53:55;;;;;;;34.73;19.93;;;15.10;99.90;;;;;;5056024;28;20507;-72
2022/09/09 02:56:29;;;;;;;38.30;20.30;;;15.10;99.90;;;;;;5074023;28;20525;-71
2022/09/09 02:58:58;;;;;;;34.17;20.43;;;15.20;99.90;;;;;;5074492;28;20511;-72
2022/09/09 03:01:24;;;;;;;36.73;21.27;;;15.10;99.90;;;;;;5074278;28;20459;-72
2022/09/09 03:03:50;;;;;;;37.77;22.03;;;15.10;99.90;;;;;;5074476;28;20397;-70
2022/09/09 03:06:19;;;;;;;40.20;21.30;;;15.10;99.90;;;;;;5055216;28;20490;-70
2022/09/09 03:08:56;;;;;;;47.17;22.17;;;15.10;99.90;;;;;;5074237;28;20785;-72
2022/09/09 03:11:28;;;;;;;47.10;24.20;;;15.10;99.90;;;;;;5074150;28;20466;-72
2022/09/09 03:13:55;;;;;;;38.50;22.10;;;15.10;99.90;;;;;;5074212;28;20466;-71
2022/09/09 03:16:23;;;;;;;37.50;22.07;;;15.00;99.90;;;;;;5073633;28;20503;-71
2022/09/09 03:18:49;;;;;;;38.80;20.87;;;15.00;99.90;;;;;;5074025;28;20439;-74
2022/09/09 03:21:15;;;;;;;44.17;24.57;;;15.00;99.90;;;;;;5073946;28;20439;-71
2022/09/09 03:23:41;;;;;;;41.53;21.90;;;14.90;99.90;;;;;;5055642;28;20419;-71
2022/09/09 03:26:07;;;;;;;41.10;22.30;;;14.90;99.90;;;;;;5073530;28;20905;-72
2022/09/09 03:28:33;;;;;;;43.27;23.57;;;14.90;99.90;;;;;;5073826;28;20786;-72
2022/09/09 03:31:04;;;;;;;43.37;22.43;;;14.80;99.90;;;;;;5073988;28;20401;-71
2022/09/09 03:33:31;;;;;;;49.20;22.77;;;14.90;99.90;;;;;;5073904;28;20166;-72
2022/09/09 03:35:57;;;;;;;47.07;24.17;;;14.80;99.90;;;;;;5073523;28;20495;-69
2022/09/09 03:38:28;;;;;;;49.40;23.67;;;14.80;99.90;;;;;;5073243;28;20466;-72
2022/09/09 03:40:57;;;;;;;36.20;21.90;;;14.80;99.90;;;;;;5073739;28;20400;-69
2022/09/09 03:43:32;;;;;;;43.27;21.87;;;14.80;99.90;;;;;;5073631;28;20393;-70
2022/09/09 03:45:58;;;;;;;34.10;20.87;;;14.80;99.90;;;;;;5073056;28;20734;-70
2022/09/09 03:48:25;;;;;;;42.97;22.17;;;14.70;99.90;;;;;;5073267;28;20444;-71
2022/09/09 03:50:53;;;;;;;44.87;22.17;;;14.70;99.90;;;;;;5055683;28;20413;-70
2022/09/09 03:53:21;;;;;;;41.23;20.30;;;14.80;99.90;;;;;;5073396;28;20824;-71
2022/09/09 03:55:54;;;;;;;41.00;20.20;;;14.70;99.90;;;;;;5073149;28;20482;-70
2022/09/09 03:58:23;;;;;;;41.30;23.17;;;14.70;99.90;;;;;;5072863;28;20421;-71
2022/09/09 04:00:56;;;;;;;38.97;20.93;;;14.70;99.90;;;;;;5055452;28;20507;-71
2022/09/09 04:03:24;;;;;;;37.67;21.33;;;14.80;99.90;;;;;;5072786;28;20490;-71
2022/09/09 04:05:53;;;;;;;36.83;20.53;;;14.80;99.90;;;;;;5072293;28;20527;-70
2022/09/09 04:08:20;;;;;;;44.90;22.43;;;14.70;99.90;;;;;;5072779;28;20427;-72
2022/09/09 04:10:48;;;;;;;35.37;19.93;;;14.70;99.90;;;;;;5073268;28;20430;-72
2022/09/09 04:13:46;;;;;;;40.67;21.87;;;14.70;99.90;;;;;;5073195;28;20412;-72
2022/09/09 04:16:13;;;;;;;42.57;23.37;;;14.80;99.90;;;;;;5065756;28;20515;-71
2022/09/09 04:18:40;;;;;;;40.77;21.90;;;14.90;99.90;;;;;;5073016;28;20425;-72
2022/09/09 04:21:09;;;;;;;47.63;20.87;;;14.90;99.90;;;;;;5072713;28;20396;-71
2022/09/09 04:23:36;;;;;;;46.87;23.13;;;14.90;99.90;;;;;;5073000;28;20405;-71
2022/09/09 04:26:17;;;;;;;42.30;21.90;;;14.90;99.90;;;;;;5072375;28;20477;-70
2022/09/09 04:28:43;;;;;;;36.67;21.60;;;14.80;99.90;;;;;;5072855;28;20520;-70
2022/09/09 04:31:17;;;;;;;46.80;21.77;;;14.90;99.90;;;;;;5073020;28;20484;-70
2022/09/09 04:33:43;;;;;;;40.37;21.20;;;14.90;99.90;;;;;;5072967;28;20411;-70
2022/09/09 04:36:09;;;;;;;44.80;22.10;;;14.90;99.90;;;;;;5072210;28;20781;-71
2022/09/09 04:39:07;;;;;;;;;;;;;;;;;;;;;
2022/09/09 04:41:22;;;;;;;48.47;22.77;;;15.00;99.90;;;;;;5065797;28;20222;-70
2022/09/09 04:43:48;;;;;;;41.50;20.93;;;15.00;99.90;;;;;;5072887;28;20401;-72
2022/09/09 04:46:17;;;;;;;39.07;21.87;;;15.00;99.90;;;;;;5054170;28;20474;-70
2022/09/09 04:48:46;;;;;;;35.23;19.67;;;15.00;99.90;;;;;;5072814;28;20416;-71
2022/09/09 04:51:14;;;;;;;34.50;20.77;;;15.00;99.90;;;;;;5072613;28;20400;-72
2022/09/09 04:53:40;;;;;;;38.07;22.00;;;15.00;99.90;;;;;;5055048;28;20507;-72
2022/09/09 04:56:12;;;;;;;42.50;21.43;;;15.00;99.90;;;;;;5072076;28;20458;-72
2022/09/09 04:58:39;;;;;;;35.40;21.97;;;15.00;99.90;;;;;;5071883;28;20495;-72
2022/09/09 05:01:19;;;;;;;32.27;17.67;;;15.00;99.90;;;;;;5072735;28;20395;-70
2022/09/09 05:03:46;;;;;;;38.70;19.60;;;15.00;99.90;;;;;;5054759;28;20767;-72
2022/09/09 05:06:14;;;;;;;35.90;18.83;;;15.10;99.90;;;;;;5054072;28;20997;-71
2022/09/09 05:08:41;;;;;;;43.13;21.33;;;15.00;99.90;;;;;;5072444;28;20503;-70
2022/09/09 05:11:52;;;;;;;40.83;22.63;;;15.00;99.90;;;;;;5072656;28;20393;-71
2022/09/09 05:14:45;;;;;;;41.07;19.00;;;15.00;99.90;;;;;;5072546;28;21286;-70
2022/09/09 05:17:12;;;;;;;41.27;21.60;;;15.00;99.90;;;;;;5073409;28;20543;-71
2022/09/09 05:19:38;;;;;;;43.23;23.10;;;15.00;99.90;;;;;;5076494;28;20511;-73
2022/09/09 05:22:04;;;;;;;36.80;22.80;;;15.10;99.90;;;;;;5076346;28;20451;-72
2022/09/09 05:24:33;;;;;;;42.60;20.97;;;15.10;99.90;;;;;;5076174;28;20527;-71
2022/09/09 05:26:59;;;;;;;34.67;20.33;;;15.10;99.90;;;;;;5075649;28;20847;-70
2022/09/09 05:29:26;;;;;;;41.23;20.93;;;15.10;99.90;;;;;;5076225;28;20505;-73
2022/09/09 05:31:52;;;;;;;37.90;20.87;;;15.10;99.90;;;;;;5076108;28;20408;-72
2022/09/09 05:34:18;;;;;;;36.47;20.83;;;15.20;99.90;;;;;;5075711;28;20408;-72
2022/09/09 05:36:44;;;;;;;39.57;20.80;;;15.20;99.90;;;;;;5075302;28;20475;-71
2022/09/09 05:39:11;;;;;;;36.27;20.93;;;15.20;99.90;;;;;;5057918;28;20491;-72
2022/09/09 05:41:37;;;;;;;39.50;22.40;;;15.20;99.90;;;;;;5058157;28;20213;-74
2022/09/09 05:44:03;;;;;;;34.97;22.50;;;15.30;99.90;;;;;;5057993;28;20433;-75
2022/09/09 05:49:31;;;;;;;40.90;21.83;;;15.30;99.90;;;;;;5073161;28;20512;-72
2022/09/09 05:52:06;;;;;;;35.33;20.83;;;15.30;99.90;;;;;;5074638;28;20474;-72
2022/09/09 05:54:32;;;;;;;43.63;19.70;;;15.30;99.90;;;;;;5057771;28;20408;-72
2022/09/09 05:56:59;;;;;;;39.10;20.27;;;15.30;99.90;;;;;;5074879;28;20408;-71
2022/09/09 05:59:24;;;;;;;35.07;19.77;;;15.30;99.90;;;;;;5075671;28;20514;-71
2022/09/09 06:01:50;;;;;;;42.80;19.10;;;15.20;99.90;;;;;;5075621;28;20445;-71
2022/09/09 06:04:17;;;;;;;40.87;19.97;;;15.20;99.90;;;;;;5057993;28;20181;-69
2022/09/09 06:06:42;;;;;;;36.73;20.33;;;15.20;99.90;;;;;;5056940;28;20170;-71
2022/09/09 06:09:10;;;;;;;47.47;22.37;;;15.20;99.90;;;;;;5056810;28;20428;-71
2022/09/09 06:11:38;;;;;;;36.87;19.53;;;15.20;99.90;;;;;;5075549;28;20503;-71
2022/09/09 06:14:05;;;;;;;44.57;21.70;;;15.20;99.90;;;;;;5075284;28;20423;-72
2022/09/09 06:16:43;;;;;;;44.47;19.97;;;15.20;99.90;;;;;;5074825;28;20405;-71
2022/09/09 06:19:12;;;;;;;42.37;20.57;;;15.20;99.90;;;;;;5074966;28;20858;-72
2022/09/09 06:21:38;;;;;;;41.53;21.00;;;15.10;99.90;;;;;;5075362;28;21001;-70
2022/09/09 06:24:04;;;;;;;43.27;20.57;;;15.20;99.90;;;;;;5075207;28;20808;-70
2022/09/09 06:26:34;;;;;;;52.40;23.97;;;15.20;99.90;;;;;;5056555;28;20442;-71
2022/09/09 06:29:03;;;;;;;47.50;19.77;;;15.30;99.90;;;;;;5055995;28;20767;-70
2022/09/09 06:31:33;;;;;;;45.30;21.80;;;15.30;99.90;;;;;;5075224;28;20405;-70
2022/09/09 06:34:00;;;;;;;53.27;22.13;;;15.30;99.90;;;;;;5075096;28;20404;-70
2022/09/09 06:36:32;;;;;;;44.13;22.03;;;15.30;99.90;;;;;;5074345;28;20412;-70
2022/09/09 06:38:58;;;;;;;41.50;21.17;;;15.30;99.90;;;;;;5056677;28;20532;-71
2022/09/09 06:41:27;;;;;;;40.80;21.40;;;15.30;99.90;;;;;;5074879;28;20535;-70
2022/09/09 06:43:53;;;;;;;44.73;21.47;;;15.30;99.90;;;;;;5056332;28;20393;-71
2022/09/09 06:46:27;;;;;;;43.67;21.43;;;15.30;99.90;;;;;;5073771;28;20428;-72
2022/09/09 06:49:04;;;;;;;42.80;23.27;;;15.30;99.90;;;;;;5074825;28;20427;-70
2022/09/09 06:51:33;;;;;;;41.40;22.07;;;15.40;99.90;;;;;;5056837;28;20412;-70
2022/09/09 06:54:02;;;;;;;38.50;22.27;;;15.40;99.90;;;;;;5074655;28;20836;-72
2022/09/09 06:56:41;;;;;;;46.73;22.13;;;15.40;99.90;;;;;;5055971;28;20431;-70
2022/09/09 06:59:09;;;;;;;42.30;22.03;;;15.40;99.90;;;;;;5056490;28;20439;-70
2022/09/09 07:01:58;;;;;;;43.80;20.30;;;15.40;99.90;;;;;;5074454;28;20471;-72
2022/09/09 07:04:25;;;;;;;36.07;20.23;;;15.40;99.90;;;;;;5055907;28;20785;-72
2022/09/09 07:06:52;;;;;;;43.03;21.80;;;15.50;99.90;;;;;;5073903;28;20400;-71
2022/09/09 07:09:18;;;;;;;40.77;21.37;;;15.50;99.90;;;;;;5074238;28;20455;-68
2022/09/09 07:11:59;;;;;;;37.90;22.07;;;15.50;99.90;;;;;;5074274;28;20452;-71
2022/09/09 07:14:25;;;;;;;42.83;21.33;;;15.60;99.90;;;;;;5074224;28;20412;-71
2022/09/09 07:17:12;;;;;;;47.07;24.07;;;15.70;99.90;;;;;;5055594;28;20458;-70
2022/09/09 07:19:37;;;;;;;39.80;19.47;;;15.70;99.90;;;;;;5073361;28;20789;-71
2022/09/09 07:22:03;;;;;;;38.50;21.60;;;15.70;99.90;;;;;;5073360;28;20540;-72
2022/09/09 07:24:30;;;;;;;44.73;21.83;;;15.70;99.90;;;;;;5074014;28;20159;-69
2022/09/09 07:26:56;;;;;;;44.47;21.90;;;15.80;99.90;;;;;;5055510;28;20412;-70
2022/09/09 07:29:22;;;;;;;44.17;21.60;;;15.80;99.90;;;;;;5073706;28;20913;-71
2022/09/09 07:31:48;;;;;;;41.80;21.63;;;15.80;99.90;;;;;;5055880;28;20448;-70
2022/09/09 07:34:14;;;;;;;42.07;22.37;;;15.70;99.90;;;;;;5073979;28;20636;-70
2022/09/09 07:36:41;;;;;;;35.90;20.00;;;15.80;99.90;;;;;;5072987;28;20750;-70
2022/09/09 07:39:10;;;;;;;42.97;20.70;;;15.70;99.90;;;;;;5073662;28;20186;-71
2022/09/09 07:41:44;;;;;;;39.50;20.57;;;15.80;99.90;;;;;;5072949;28;20445;-70
2022/09/09 07:44:16;;;;;;;34.13;21.73;;;15.90;99.90;;;;;;5073694;28;20400;-70
2022/09/09 07:46:44;;;;;;;49.40;23.03;;;15.90;99.90;;;;;;5073029;28;20404;-71
2022/09/09 07:49:11;;;;;;;43.17;23.07;;;15.90;99.90;;;;;;5055579;28;20556;-71
2022/09/09 07:51:42;;;;;;;45.13;23.33;;;16.00;99.90;;;;;;5055670;28;20462;-70
2022/09/09 07:54:10;;;;;;;37.10;21.43;;;16.00;99.90;;;;;;5055853;28;20431;-70
2022/09/09 07:56:37;;;;;;;35.03;20.83;;;16.10;99.90;;;;;;5072780;28;20405;-71
2022/09/09 07:59:06;;;;;;;39.77;22.83;;;16.20;99.90;;;;;;5072828;28;20507;-70
2022/09/09 08:01:40;;;;;;;37.57;21.40;;;16.20;99.90;;;;;;5055388;28;20448;-71
2022/09/09 08:04:17;;;;;;;34.53;18.93;;;16.20;99.90;;;;;;5055395;28;20845;-71
2022/09/09 08:06:52;;;;;;;37.80;20.90;;;16.30;99.90;;;;;;5072767;28;20788;-70
2022/09/09 08:09:24;;;;;;;35.70;20.33;;;16.30;99.90;;;;;;5073028;28;20423;-71
2022/09/09 08:11:50;;;;;;;34.73;20.57;;;16.40;99.90;;;;;;5073219;28;20487;-71
2022/09/09 08:14:17;;;;;;;33.40;20.00;;;16.60;99.90;;;;;;5073107;28;20412;-71
2022/09/09 08:16:45;;;;;;;26.37;16.90;;;16.50;99.90;;;;;;5072542;28;20495;-69
2022/09/09 08:19:12;;;;;;;27.20;17.90;;;16.60;99.90;;;;;;5072108;28;20785;-69
2022/09/09 08:21:40;;;;;;;26.27;18.37;;;16.70;99.90;;;;;;5055409;28;20530;-69
2022/09/09 08:24:10;;;;;;;28.43;16.63;;;16.80;99.90;;;;;;5072983;28;20396;-69
2022/09/09 08:26:41;;;;;;;23.77;16.37;;;16.80;99.90;;;;;;5054456;28;20403;-69
2022/09/09 08:29:11;;;;;;;24.53;15.70;;;17.00;99.90;;;;;;5072922;28;20482;-69
2022/09/09 08:31:42;;;;;;;25.10;15.47;;;17.20;99.90;;;;;;5054624;28;20478;-71
2022/09/09 08:34:09;;;;;;;21.53;15.50;;;17.30;99.90;;;;;;5054747;28;20499;-71
2022/09/09 08:36:43;;;;;;;21.10;15.60;;;17.40;99.90;;;;;;5072021;28;20415;-68
2022/09/09 08:39:11;;;;;;;24.97;16.57;;;17.40;99.90;;;;;;5072621;28;20488;-72
2022/09/09 08:42:21;;;;;;;19.00;14.50;;;17.40;88.60;;;;;;5072933;28;20452;-69
2022/09/09 08:45:33;;;;;;;21.00;14.77;;;17.40;81.50;;;;;;5071568;28;20423;-68
2022/09/09 08:48:22;;;;;;;22.07;14.70;;;17.50;66.00;;;;;;5029995;28;20974;-69
2022/09/09 08:50:50;;;;;;;25.43;16.23;;;17.50;39.50;;;;;;5071661;28;20420;-71
2022/09/09 08:53:21;;;;;;;22.63;17.30;;;17.60;25.60;;;;;;5076747;28;20420;-69
2022/09/09 08:56:11;;;;;;;26.00;17.30;;;17.60;20.20;;;;;;5076596;28;20407;-72
2022/09/09 08:58:49;;;;;;;22.77;15.70;;;17.60;1.00;;;;;;5076551;28;20511;-72
2022/09/09 09:01:31;;;;;;;26.40;17.23;;;17.60;1.00;;;;;;5076682;28;20400;-71
2022/09/09 09:04:41;;;;;;;22.17;14.87;;;17.70;1.00;;;;;;5076757;28;20401;-72
2022/09/09 09:07:20;;;;;;;19.77;15.93;;;17.70;1.00;;;;;;5058283;28;20935;-72
2022/09/09 09:10:01;;;;;;;22.40;15.93;;;17.80;1.00;;;;;;5076545;28;20808;-70
2022/09/09 09:12:35;;;;;;;23.63;15.50;;;17.80;1.00;;;;;;5058482;28;20408;-70
2022/09/09 09:15:01;;;;;;;26.87;16.33;;;17.80;1.00;;;;;;5076597;28;20450;-70
2022/09/09 09:17:41;;;;;;;;;;;;;;;;;;;;;
2022/09/09 09:20:14;;;;;;;27.37;18.80;;;18.00;1.00;;;;;;5076168;28;20646;-68
2022/09/09 09:22:50;;;;;;;21.90;17.67;;;18.20;1.00;;;;;;5076267;28;20452;-70
2022/09/09 09:25:45;;;;;;;26.37;17.47;;;18.20;1.00;;;;;;5076287;28;20397;-69
2022/09/09 09:28:29;;;;;;;19.77;16.60;;;18.10;1.00;;;;;;5070657;28;20444;-71
2022/09/09 09:31:11;;;;;;;32.73;18.97;;;18.10;1.00;;;;;;5076277;28;20439;-71
2022/09/09 09:33:46;;;;;;;20.73;17.70;;;18.20;1.00;;;;;;5074354;28;20412;-70
2022/09/09 09:36:15;;;;;;;26.93;18.47;;;18.50;1.00;;;;;;5075455;28;20427;-70
2022/09/09 09:39:01;;;;;;;23.80;18.30;;;18.60;1.00;;;;;;5057931;28;20424;-71
2022/09/09 09:41:39;;;;;;;24.20;18.30;;;18.80;1.00;;;;;;5058156;28;20826;-72
2022/09/09 09:44:22;;;;;;;21.27;16.10;;;19.20;1.00;;;;;;5075807;28;20420;-71
2022/09/09 09:46:48;;;;;;;16.97;15.13;;;19.80;1.00;;;;;;5057381;28;20408;-71
2022/09/09 09:49:14;;;;;;;19.50;15.90;;;19.90;99.90;;;;;;5075426;28;20432;-71
2022/09/09 09:51:40;;;;;;;22.27;15.67;;;19.70;99.90;;;;;;5057428;28;20178;-72
2022/09/09 09:54:14;;;;;;;17.57;15.40;;;19.70;99.90;;;;;;5075730;28;20901;-72
2022/09/09 09:56:42;;;;;;;18.53;15.67;;;19.50;99.90;;;;;;5075076;28;20408;-71
2022/09/09 09:59:36;;;;;;;19.27;17.23;;;19.40;99.90;;;;;;5075571;28;20512;-73
2022/09/09 10:02:25;;;;;;;24.77;15.30;;;19.20;99.90;;;;;;5074507;28;20513;-73
2022/09/09 10:05:03;;;;;;;15.67;13.77;;;19.60;99.90;;;;;;5074814;28;20966;-70
2022/09/09 10:07:29;;;;;;;14.70;12.63;;;20.40;99.90;;;;;;5074883;28;20502;-72
2022/09/09 10:09:57;;;;;;;15.93;14.23;;;20.60;99.90;;;;;;5056752;28;20442;-73
2022/09/09 10:12:48;;;;;;;14.53;12.70;;;20.50;99.90;;;;;;5075472;28;20500;-74
2022/09/09 10:15:32;;;;;;;11.80;10.60;;;20.40;99.90;;;;;;5057482;28;20465;-75
2022/09/09 10:18:23;;;;;;;12.23;11.03;;;20.60;99.90;;;;;;5074689;28;20440;-74
2022/09/09 10:20:52;;;;;;;9.93;8.90;;;21.10;98.70;;;;;;5075246;28;20916;-73
2022/09/09 10:23:32;;;;;;;10.13;9.13;;;21.20;76.20;;;;;;5075113;28;20547;-69
2022/09/09 10:26:20;;;;;;;10.97;10.03;;;21.40;76.60;;;;;;5056960;28;20404;-70
2022/09/09 10:29:21;;;;;;;9.57;8.57;;;21.70;62.00;;;;;;5074141;28;20426;-70
2022/09/09 10:32:05;;;;;;;8.57;7.93;;;22.00;37.60;;;;;;5075095;28;20447;-72
2022/09/09 10:34:51;;;;;;;8.80;7.80;;;21.80;4.00;;;;;;5074966;28;20466;-73
2022/09/09 10:37:51;;;;;;;7.47;6.20;;;21.40;1.00;;;;;;5074347;28;20730;-73
2022/09/09 10:40:45;;;;;;;5.90;5.40;;;21.80;10.00;;;;;;5057357;28;20555;-71
2022/09/09 10:43:39;;;;;;;6.53;5.73;;;22.30;4.70;;;;;;5075231;28;20448;-70
2022/09/09 10:46:28;;;;;;;4.90;4.60;;;22.60;1.00;;;;;;5073526;28;20412;-70
2022/09/09 10:49:19;;;;;;;6.07;5.00;;;22.60;1.00;;;;;;5074770;28;20436;-73
2022/09/09 10:52:00;;;;;;;5.63;5.10;;;22.70;1.00;;;;;;5073406;28;20504;-72
2022/09/09 10:55:04;;;;;;;4.40;4.10;;;23.40;1.00;;;;;;5056772;28;20420;-72
2022/09/09 10:57:53;;;;;;;4.30;3.70;;;23.50;1.00;;;;;;5073841;28;20404;-73
2022/09/09 11:00:22;;;;;;;3.33;3.13;;;23.50;1.00;;;;;;5056784;28;20404;-70
2022/09/09 11:02:56;;;;;;;3.33;3.10;;;23.30;1.00;;;;;;5074482;28;20518;-73
2022/09/09 11:05:45;;;;;;;3.37;3.13;;;23.10;1.00;;;;;;5073916;28;20431;-72
2022/09/09 11:08:21;;;;;;;3.40;2.97;;;23.40;1.00;;;;;;5073657;28;20424;-70
2022/09/09 11:11:24;;;;;;;2.43;2.33;;;23.80;1.00;;;;;;5074416;28;20451;-73
2022/09/09 11:14:12;;;;;;;4.37;2.63;;;23.90;1.00;;;;;;5072723;28;20412;-71
2022/09/09 11:17:00;;;;;;;2.87;2.67;;;23.90;1.00;;;;;;5073602;28;20419;-71
2022/09/09 11:19:42;;;;;;;2.53;2.40;;;23.60;1.00;;;;;;5072833;28;20661;-73
2022/09/09 11:22:32;;;;;;;5.77;4.40;;;23.30;1.00;;;;;;5074053;28;20939;-69
2022/09/09 11:29:14;;;;;;;2.13;1.93;;;23.30;1.00;;;;;;5031520;28;20436;-73
2022/09/09 11:32:07;;;;;;;1.80;1.70;;;23.60;1.00;;;;;;5032019;28;20424;-73
2022/09/09 11:34:56;;;;;;;3.13;2.53;;;23.60;1.00;;;;;;5068910;28;20420;-73
2022/09/09 11:37:59;;;;;;;2.73;2.53;;;23.80;1.00;;;;;;5055233;28;20435;-69
2022/09/09 11:40:28;;;;;;;2.40;2.20;;;24.00;1.00;;;;;;5073893;28;20435;-70
2022/09/09 11:43:15;;;;;;;3.60;1.90;;;24.20;1.00;;;;;;5055864;28;20460;-74
2022/09/09 11:45:42;;;;;;;2.63;2.00;;;24.40;1.00;;;;;;5055431;28;20900;-70
2022/09/09 11:48:49;;;;;;;2.33;1.00;;;24.60;1.00;;;;;;5055094;28;20956;-72
2022/09/09 11:51:20;;;;;;;4.80;1.90;;;24.70;1.00;;;;;;4991983;28;20510;-70
2022/09/09 11:53:52;;;;;;;1.30;1.07;;;24.60;1.00;;;;;;5047780;28;20436;-69
2022/09/09 11:56:34;;;;;;;2.90;1.33;;;24.20;1.00;;;;;;5072917;28;20403;-73
2022/09/09 11:59:06;;;;;;;1.47;1.37;;;23.70;1.00;;;;;;5055646;28;20429;-70
2022/09/09 12:01:36;;;;;;;2.30;1.63;;;23.40;1.00;;;;;;5072279;28;20425;-72
2022/09/09 12:04:12;;;;;;;1.63;1.30;;;23.00;1.00;;;;;;5073326;28;20954;-68
2022/09/09 12:06:56;;;;;;;1.90;1.53;;;22.70;1.00;;;;;;5072700;28;20412;-72
2022/09/09 12:09:24;;;;;;;2.27;1.00;;;22.60;1.00;;;;;;5073246;28;20992;-69
2022/09/09 12:11:51;;;;;;;1.60;0.97;;;22.80;1.00;;;;;;5073222;28;20428;-72
2022/09/09 12:14:22;;;;;;;2.17;0.93;;;23.20;1.00;;;;;;5073224;28;20412;-69
2022/09/09 12:16:48;;;;;;;2.47;1.10;;;23.20;1.00;;;;;;5072584;28;20415;-70
2022/09/09 12:19:21;;;;;;;1.87;1.10;;;23.80;1.00;;;;;;5072974;28;20479;-72
2022/09/09 12:22:15;;;;;;;2.50;0.90;;;24.60;1.00;;;;;;5053987;28;20448;-69
2022/09/09 12:25:01;;;;;;;1.53;1.00;;;25.10;1.00;;;;;;5055110;28;20436;-72
2022/09/09 12:27:53;;;;;;;1.83;0.93;;;25.00;1.00;;;;;;5053705;28;20785;-70
2022/09/09 12:30:21;;;;;;;1.30;1.20;;;25.00;1.00;;;;;;5072962;28;20861;-72
2022/09/09 12:32:47;;;;;;;2.30;0.80;;;25.50;1.00;;;;;;5073070;28;20412;-70
2022/09/09 12:35:27;;;;;;;1.77;1.20;;;26.30;1.00;;;;;;5072941;28;20409;-73
2022/09/09 12:38:02;;;;;;;4.20;0.97;;;26.00;1.00;;;;;;5072023;28;20320;-71
2022/09/09 12:40:34;;;;;;;1.60;1.20;;;25.90;1.00;;;;;;5054035;28;20419;-71
2022/09/09 12:43:01;;;;;;;1.97;1.40;;;26.10;1.00;;;;;;5054807;28;20463;-72
2022/09/09 12:45:31;;;;;;;1.20;1.10;;;25.70;1.00;;;;;;5072941;28;20400;-69
2022/09/09 12:48:03;;;;;;;1.20;0.80;;;25.80;1.00;;;;;;5053979;28;20432;-69
2022/09/09 12:50:35;;;;;;;1.30;0.80;;;26.60;1.00;;;;;;5072714;28;20404;-69
2022/09/09 12:53:26;;;;;;;1.57;1.03;;;27.30;1.00;;;;;;5054648;28;20436;-70
2022/09/09 12:56:17;;;;;;;2.53;1.10;;;27.20;1.00;;;;;;5058616;28;20428;-70
2022/09/09 12:58:47;;;;;;;1.87;0.80;;;27.40;1.00;;;;;;5071727;28;20428;-72
2022/09/09 13:01:28;;;;;;;2.00;0.80;;;27.10;1.00;;;;;;5072766;28;20444;-67
2022/09/09 13:03:55;;;;;;;1.97;1.50;;;27.10;1.00;;;;;;5054745;28;20413;-67
2022/09/09 13:06:27;;;;;;;2.33;1.00;;;26.60;1.00;;;;;;5071951;28;20401;-69
2022/09/09 13:09:03;;;;;;;3.10;1.40;;;26.40;1.00;;;;;;5072717;28;20444;-71
2022/09/09 13:11:42;;;;;;;2.37;1.37;;;26.30;1.00;;;;;;5072614;28;20526;-71
2022/09/09 13:14:21;;;;;;;1.20;1.10;;;26.30;1.00;;;;;;5072587;28;20426;-71
2022/09/09 13:16:59;;;;;;;1.13;0.90;;;26.20;1.00;;;;;;5071741;28;20400;-68
2022/09/09 13:19:27;;;;;;;1.53;1.00;;;26.20;1.00;;;;;;5053668;28;20450;-68
2022/09/09 13:21:53;;;;;;;2.53;1.10;;;26.10;1.00;;;;;;5072498;28;20452;-67
2022/09/09 13:24:39;;;;;;;2.00;0.93;;;26.10;1.00;;;;;;5072511;28;20412;-68
2022/09/09 13:27:31;;;;;;;2.17;1.20;;;26.10;1.00;;;;;;5070171;28;20492;-68
2022/09/09 13:29:57;;;;;;;2.03;1.43;;;25.90;1.00;;;;;;5072944;28;20416;-68
2022/09/09 13:32:27;;;;;;;1.60;1.17;;;25.60;1.00;;;;;;5072125;28;20499;-71
2022/09/09 13:34:56;;;;;;;1.43;1.33;;;25.30;1.00;;;;;;5072607;28;20167;-71
2022/09/09 13:37:37;;;;;;;2.13;1.43;;;25.10;1.00;;;;;;5053392;28;20408;-67